Main page
METAR-TAF:

METAR-TAF

Airports :

Doylestown Airport

Doylestown, Pennsylvania, United States

latitude: 40-19-48N, longitude: 075-07-21W, elevation: 394 ft

Current weather observation

The report was made 1 hour and 7 minutes ago, at 21:54 UTC
Wind 3 mph from the South/Southwest
Temperature 52°F
Humidity 43%
Pressure 30.09 in. Hg
Visibility: 10 miles
Clear sky

METAR: KDYL 212154Z AUTO 21003KT 10SM CLR 11/M01 A3009 RMK AO2 SLP194 T01061006

Time: 18:01 (23:01 UTC)


TAF: missing

Weather observations and forecasts of more than 4000 airports (METAR and TAF reports).

The available stations are represented by yellow and red dots on the map.

Hover mouse over dot to see the name of the station.

Then click to see weather observations and forecasts.

To change the map : click on the green buttons with a black cross to zoom in, on the green button with a dash to zoom out, or on the green arrows for adjacent maps.


METAR-TAF: